Time;durP1;ratioP1;P1;durP2;ratioP2;P2;SDS_P1;SDS_P2;PMS_P1;PMS_P2;Temp;Humidity;BMP_temperature;BMP_pressure;BME280_temperature;BME280_humidity;BME280_pressure;Samples;Min_cycle;Max_cycle;Signal;HPM_P1;HPM_P2
2021/12/04 00:01:47;;;;;;;;;11.50;8.00;;;;;6.65;97.58;99683.41;5034478;28;46572;-68
2021/12/04 00:04:13;;;;;;;;;7.00;7.00;;;;;6.65;97.27;99686.00;5036699;28;45341;-69
2021/12/04 00:06:40;;;;;;;;;10.50;10.00;;;;;6.51;97.69;99656.72;5036632;28;45420;-69
2021/12/04 00:09:07;;;;;;;;;6.50;4.00;;;;;6.56;97.90;99668.75;5037105;28;45417;-69
2021/12/04 00:11:35;;;;;;;;;15.00;11.25;;;;;6.59;97.79;99650.41;5036370;28;47303;-68
2021/12/04 00:14:01;;;;;;;;;10.50;10.00;;;;;6.59;98.20;99642.56;5036688;28;45430;-69
2021/12/04 00:16:26;;;;;;;;;7.75;7.25;;;;;6.62;97.38;99647.72;5036353;28;45262;-68
2021/12/04 00:18:51;;;;;;;;;14.75;10.25;;;;;6.61;97.36;99645.97;5036494;28;45470;-69
2021/12/04 00:21:17;;;;;;;;;7.00;7.00;;;;;6.61;97.58;99647.75;5036396;28;47384;-69
2021/12/04 00:23:42;;;;;;;;;11.25;9.25;;;;;6.52;97.55;99630.53;5036949;28;45835;-67
2021/12/04 00:26:07;;;;;;;;;11.00;10.00;;;;;6.62;97.20;99637.25;5037092;28;45702;-67
2021/12/04 00:28:33;;;;;;;;;10.00;8.25;;;;;6.65;97.61;99627.59;5035614;28;45385;-66
2021/12/04 00:31:04;;;;;;;;;11.50;9.75;;;;;6.58;97.66;99605.97;5041543;28;46431;-66
2021/12/04 00:33:32;;;;;;;;;8.00;5.75;;;;;6.60;97.10;99605.03;5018399;28;45337;-67
2021/12/04 00:36:08;;;;;;;;;9.50;9.00;;;;;6.56;97.61;99608.59;5038435;28;45372;-68
2021/12/04 00:51:32;;;;;;;;;8.75;7.75;;;;;6.51;98.06;99588.72;5036203;28;46079;-68
2021/12/04 00:53:57;;;;;;;;;8.00;7.00;;;;;6.51;97.97;99592.19;5035674;28;45275;-69
2021/12/04 00:56:25;;;;;;;;;10.00;8.00;;;;;6.56;98.54;99597.28;5036805;28;45189;-68
2021/12/04 00:58:50;;;;;;;;;7.50;7.00;;;;;6.56;98.00;99592.91;5036599;28;45448;-68
2021/12/04 01:01:18;;;;;;;;;8.75;8.75;;;;;6.58;97.44;99585.91;5036524;28;45905;-68
2021/12/04 01:03:43;;;;;;;;;5.00;5.00;;;;;6.53;96.97;99577.31;5036288;28;45373;-68
2021/12/04 01:06:09;;;;;;;;;5.50;5.50;;;;;6.39;97.55;99554.13;5036116;28;45468;-68
2021/12/04 01:08:34;;;;;;;;;7.75;7.75;;;;;6.28;97.81;99536.09;5036674;28;45236;-68
2021/12/04 01:11:02;;;;;;;;;7.50;7.50;;;;;6.54;97.64;99586.88;5036178;28;46651;-69
2021/12/04 01:13:28;;;;;;;;;7.50;7.00;;;;;6.49;97.64;99567.84;5036761;28;45350;-68
2021/12/04 01:15:54;;;;;;;;;7.25;7.00;;;;;6.52;97.38;99570.38;5039487;28;45448;-68
2021/12/04 01:18:19;;;;;;;;;7.00;7.00;;;;;6.49;97.53;99562.63;5039798;28;45254;-68
2021/12/04 01:20:45;;;;;;;;;10.00;8.00;;;;;6.44;97.69;99559.25;5039293;28;46334;-68
2021/12/04 01:23:10;;;;;;;;;9.00;9.00;;;;;6.45;98.57;99560.97;5039378;28;45365;-69
2021/12/04 01:25:37;;;;;;;;;8.50;8.50;;;;;6.42;98.04;99547.97;5039977;28;45314;-68
2021/12/04 01:28:04;;;;;;;;;9.75;8.25;;;;;6.42;98.52;99550.59;5039730;28;45693;-68
2021/12/04 01:30:30;;;;;;;;;9.75;9.00;;;;;6.42;98.47;99556.66;5039070;28;46456;-67
2021/12/04 01:32:55;;;;;;;;;8.50;7.25;;;;;6.41;98.35;99554.09;5039630;28;45286;-68
2021/12/04 01:35:20;;;;;;;;;9.00;8.00;;;;;6.41;98.73;99544.47;5039383;28;45445;-69
2021/12/04 01:37:46;;;;;;;;;8.00;7.50;;;;;6.38;98.82;99535.88;5039656;28;45631;-68
2021/12/04 01:40:12;;;;;;;;;7.75;7.25;;;;;6.32;98.97;99522.94;5039111;28;45999;-68
2021/12/04 01:42:37;;;;;;;;;9.25;7.50;;;;;6.36;98.67;99519.34;5039255;28;45343;-69
2021/12/04 01:45:07;;;;;;;;;9.50;8.50;;;;;6.41;98.82;99530.56;5039359;28;45435;-68
2021/12/04 01:47:33;;;;;;;;;8.25;7.00;;;;;6.41;98.67;99518.34;5037990;28;45456;-67
2021/12/04 01:50:00;;;;;;;;;11.25;6.25;;;;;6.36;99.29;99508.88;5037744;28;45490;-67
2021/12/04 01:52:26;;;;;;;;;3.50;1.00;;;;;6.39;98.96;99514.03;5038461;28;45467;-67
2021/12/04 01:54:52;;;;;;;;;7.75;7.00;;;;;6.36;98.77;99506.28;5038797;28;45321;-67
2021/12/04 01:57:20;;;;;;;;;10.25;5.75;;;;;6.20;99.31;99490.13;5039510;28;45401;-67
2021/12/04 01:59:47;;;;;;;;;11.00;7.25;;;;;6.30;98.88;99493.38;5038808;28;47520;-67
2021/12/04 02:02:13;;;;;;;;;11.67;9.00;;;;;6.37;99.70;99503.63;5038864;28;45342;-67
2021/12/04 02:04:38;;;;;;;;;7.00;7.00;;;;;6.33;98.92;99495.91;5039094;28;46039;-67
2021/12/04 02:07:04;;;;;;;;;8.50;6.75;;;;;6.28;98.67;99483.81;5038155;28;45488;-67
2021/12/04 02:09:34;;;;;;;;;11.25;8.00;;;;;6.28;98.85;99485.56;5036925;28;47278;-67
2021/12/04 02:12:03;;;;;;;;;8.67;7.00;;;;;6.32;99.37;99489.81;5036369;28;45446;-67
2021/12/04 02:14:30;;;;;;;;;12.50;10.75;;;;;6.28;99.96;99477.72;5037203;28;45535;-67
2021/12/04 02:16:55;;;;;;;;;10.00;10.00;;;;;6.33;99.84;99477.59;5037302;28;45477;-67
2021/12/04 02:19:21;;;;;;;;;13.75;11.00;;;;;6.34;99.56;99477.56;5036747;28;46603;-67
2021/12/04 02:21:47;;;;;;;;;15.00;11.67;;;;;6.37;100.00;99476.63;5037395;28;45487;-69
2021/12/04 02:24:12;;;;;;;;;13.33;12.00;;;;;6.36;99.59;99483.63;5038974;28;45302;-69
2021/12/04 02:26:38;;;;;;;;;16.33;14.33;;;;;6.34;99.27;99476.72;5037791;28;45228;-68
2021/12/04 02:29:04;;;;;;;;;14.67;14.33;;;;;6.35;99.58;99473.22;5038395;28;46599;-68
2021/12/04 02:31:29;;;;;;;;;13.00;10.00;;;;;6.12;99.88;99432.84;5036815;28;45453;-68
2021/12/04 02:33:55;;;;;;;;;18.67;13.00;;;;;6.38;99.77;99473.13;5038063;28;46429;-69
2021/12/04 02:36:20;;;;;;;;;11.00;9.75;;;;;6.32;99.23;99460.19;5038748;28;45455;-69
2021/12/04 02:38:51;;;;;;;;;9.00;7.50;;;;;6.28;98.86;99460.28;5037907;28;45797;-68
2021/12/04 02:41:18;;;;;;;;;11.33;11.33;;;;;6.40;98.96;99474.78;5038378;28;45439;-69
2021/12/04 02:43:43;;;;;;;;;16.00;10.67;;;;;6.38;99.69;99481.81;5038236;28;45205;-67
2021/12/04 02:46:09;;;;;;;;;18.00;10.33;;;;;6.35;100.00;99478.44;5038304;28;45511;-67
2021/12/04 02:48:34;;;;;;;;;13.75;10.00;;;;;6.33;100.00;99481.09;5037282;28;46488;-67
2021/12/04 02:50:59;;;;;;;;;16.00;15.00;;;;;6.44;99.50;99499.94;5038204;28;45544;-67
2021/12/04 02:53:25;;;;;;;;;15.00;15.00;;;;;6.43;100.00;99500.88;5038642;28;45419;-69
2021/12/04 02:55:52;;;;;;;;;14.25;14.00;;;;;6.48;100.00;99494.63;5037563;28;45321;-69
2021/12/04 02:58:18;;;;;;;;;17.25;10.75;;;;;6.57;99.86;99499.66;5036988;28;45775;-68
2021/12/04 03:00:50;;;;;;;;;17.00;15.25;;;;;6.59;100.00;99500.44;5037727;28;45435;-68
2021/12/04 03:03:17;;;;;;;;;12.33;11.33;;;;;6.65;99.98;99518.63;5037844;28;45381;-68
2021/12/04 03:05:50;;;;;;;;;20.67;15.33;;;;;6.61;99.85;99502.13;5037729;28;45568;-69
2021/12/04 03:08:17;;;;;;;;;16.50;12.50;;;;;6.73;99.25;99510.56;5037243;28;45528;-69
2021/12/04 03:10:43;;;;;;;;;21.75;13.75;;;;;6.75;98.40;99506.13;5037394;28;45531;-69
2021/12/04 03:13:10;;;;;;;;;15.33;13.67;;;;;6.72;98.83;99508.84;5037871;28;45440;-69
2021/12/04 03:15:43;;;;;;;;;17.00;14.00;;;;;6.72;99.48;99522.75;5038311;28;45480;-69
2021/12/04 03:18:09;;;;;;;;;19.67;15.00;;;;;6.74;99.10;99522.75;5037282;28;47233;-69
2021/12/04 03:20:41;;;;;;;;;20.00;15.33;;;;;6.78;99.14;99517.38;5037641;28;45448;-69
2021/12/04 03:23:14;;;;;;;;;16.67;14.33;;;;;6.78;99.12;99508.66;5037343;28;45258;-69
2021/12/04 03:25:40;;;;;;;;;22.00;16.67;;;;;6.86;98.73;99514.53;5037339;28;45625;-69
2021/12/04 03:28:07;;;;;;;;;18.67;17.33;;;;;6.80;98.89;99502.50;5037582;28;45454;-69
2021/12/04 03:41:50;;;;;;;;;18.33;16.33;;;;;6.99;98.16;99519.47;4974900;28;45358;-69
2021/12/04 03:44:15;;;;;;;;;13.25;12.25;;;;;6.93;98.31;99500.38;4965198;28;45412;-69
2021/12/04 03:46:44;;;;;;;;;19.50;15.75;;;;;6.96;98.00;99495.06;4956800;28;45336;-68
2021/12/04 03:49:09;;;;;;;;;20.33;13.67;;;;;6.96;98.04;99505.53;4956289;28;45416;-69
2021/12/04 03:51:35;;;;;;;;;16.00;16.00;;;;;7.09;97.88;99510.44;4956406;28;45309;-68
2021/12/04 03:54:02;;;;;;;;;13.33;12.33;;;;;7.07;97.84;99493.91;4974712;28;45521;-68
2021/12/04 03:56:28;;;;;;;;;18.50;15.00;;;;;7.04;97.45;99496.63;4975987;28;45248;-68
2021/12/04 03:58:54;;;;;;;;;14.00;12.50;;;;;7.02;98.06;99488.81;4974271;28;46124;-68
2021/12/04 04:01:19;;;;;;;;;17.67;16.67;;;;;7.07;97.99;99479.06;4975563;28;45204;-68
2021/12/04 04:03:45;;;;;;;;;18.33;16.00;;;;;7.03;97.58;99472.22;4990135;28;45466;-69
2021/12/04 04:06:11;;;;;;;;;16.00;16.00;;;;;7.04;97.29;99473.91;5037383;28;45454;-69
2021/12/04 04:08:36;;;;;;;;;16.67;14.33;;;;;6.93;97.11;99474.22;5036902;28;46804;-69
2021/12/04 04:11:02;;;;;;;;;16.00;14.00;;;;;7.01;98.02;99487.09;5036794;28;45333;-69
2021/12/04 04:13:27;;;;;;;;;16.00;15.67;;;;;7.00;97.83;99474.03;5036940;28;45346;-69
2021/12/04 04:15:53;;;;;;;;;16.00;11.00;;;;;7.00;97.46;99469.69;5036913;28;45381;-68
2021/12/04 04:18:20;;;;;;;;;17.25;13.25;;;;;7.11;97.08;99492.91;5036783;28;46543;-69
2021/12/04 04:20:45;;;;;;;;;16.25;12.25;;;;;7.00;97.32;99474.03;5036879;28;45245;-69
2021/12/04 04:23:10;;;;;;;;;16.75;11.25;;;;;7.08;97.61;99486.00;5036641;28;45613;-69
2021/12/04 04:25:36;;;;;;;;;15.00;12.67;;;;;7.03;97.64;99463.47;5037298;28;45438;-69
2021/12/04 04:28:02;;;;;;;;;21.33;11.67;;;;;7.07;97.16;99470.34;5036277;28;46193;-70
2021/12/04 04:30:27;;;;;;;;;15.33;13.33;;;;;7.09;97.20;99469.41;5036984;28;45342;-69
2021/12/04 04:32:54;;;;;;;;;12.33;12.33;;;;;7.00;97.38;99455.72;5035642;28;45504;-69
2021/12/04 04:35:25;;;;;;;;;16.75;13.00;;;;;7.02;97.04;99446.09;5037070;28;45390;-69
2021/12/04 05:13:06;;;;;;;;;16.00;14.00;;;;;7.07;97.15;99439.81;5039335;28;45439;-68
2021/12/04 05:15:40;;;;;;;;;20.67;14.33;;;;;7.05;97.34;99449.47;5039827;28;45438;-68
2021/12/04 05:20:36;;;;;;;;;22.33;17.67;;;;;7.00;96.94;99438.28;5039531;28;45385;-68
2021/12/04 05:23:01;;;;;;;;;23.67;21.00;;;;;6.78;97.03;99411.88;5039012;28;46396;-68
2021/12/04 05:25:29;;;;;;;;;18.33;15.67;;;;;6.90;98.16;99431.59;5039888;28;45444;-68
2021/12/04 05:27:55;;;;;;;;;15.50;12.25;;;;;6.80;98.04;99416.16;5039360;28;45394;-68
2021/12/04 05:30:20;;;;;;;;;23.00;17.33;;;;;6.90;97.32;99431.59;5042781;28;46145;-70
2021/12/04 05:32:45;;;;;;;;;20.00;16.33;;;;;6.79;97.62;99414.44;5059529;28;45434;-70
2021/12/04 05:35:11;;;;;;;;;27.33;20.00;;;;;6.86;97.79;99419.50;5059738;28;45545;-70
2021/12/04 05:37:36;;;;;;;;;21.33;18.67;;;;;6.82;98.30;99426.56;5059690;28;45400;-69
2021/12/04 05:40:02;;;;;;;;;26.67;19.33;;;;;6.86;98.68;99432.59;5053760;28;46596;-69
2021/12/04 05:42:29;;;;;;;;;22.25;19.75;;;;;6.85;98.43;99434.34;5039364;28;45354;-67
2021/12/04 05:44:55;;;;;;;;;25.33;17.33;;;;;6.86;98.45;99424.75;5038630;28;45152;-67
2021/12/04 05:47:25;;;;;;;;;25.67;17.00;;;;;6.92;98.17;99440.25;5039072;28;45592;-67
2021/12/04 05:50:14;;;;;;;;;21.67;14.33;;;;;6.93;98.07;99441.97;5039315;28;45641;-69
2021/12/04 05:53:28;;;;;;;;;22.67;20.00;;;;;6.92;98.06;99435.88;5039053;28;45249;-69
2021/12/04 05:55:26;;;;;;;;;30.00;19.33;;;;;6.87;98.36;99432.53;5031092;28;45453;-69
2021/12/04 05:57:51;;;;;;;;;24.33;20.00;;;;;6.94;98.00;99428.84;5038211;28;45310;-69
2021/12/04 06:00:24;;;;;;;;;31.67;24.67;;;;;6.93;97.70;99427.13;5038478;28;46568;-70
2021/12/04 06:02:49;;;;;;;;;22.00;19.50;;;;;6.89;98.16;99428.13;5038882;28;45311;-70
2021/12/04 06:05:17;;;;;;;;;24.67;21.00;;;;;6.94;98.02;99431.47;5038769;28;45315;-70
2021/12/04 06:07:43;;;;;;;;;26.33;19.33;;;;;7.00;97.65;99447.88;5039231;28;45362;-69
2021/12/04 06:10:10;;;;;;;;;22.33;20.00;;;;;7.01;98.11;99441.75;5024802;28;46313;-69
2021/12/04 06:12:35;;;;;;;;;28.00;22.00;;;;;7.01;98.23;99432.13;5018421;28;45414;-69
2021/12/04 06:15:01;;;;;;;;;25.67;21.33;;;;;7.03;98.29;99448.66;5033192;28;45362;-67
2021/12/04 06:17:29;;;;;;;;;22.33;17.00;;;;;6.96;98.39;99421.81;5038927;28;45189;-69
2021/12/04 06:22:42;;;;;;;;;24.00;18.33;;;;;7.04;98.21;99421.56;5038603;28;45388;-66
2021/12/04 06:25:19;;;;;;;;;25.33;19.67;;;;;7.07;98.63;99425.84;5038316;28;45495;-67
2021/12/04 06:27:45;;;;;;;;;25.67;17.67;;;;;7.02;98.43;99412.06;5018865;28;45362;-67
2021/12/04 06:30:14;;;;;;;;;21.33;17.33;;;;;7.08;98.55;99409.25;5019117;28;47411;-67
2021/12/04 06:32:39;;;;;;;;;28.00;22.33;;;;;7.05;99.02;99402.34;5038619;28;45233;-67
2021/12/04 06:35:08;;;;;;;;;29.00;20.33;;;;;7.07;99.26;99392.72;5037781;28;45459;-67
2021/12/04 06:37:34;;;;;;;;;18.00;15.75;;;;;7.09;98.78;99392.66;5038519;28;45301;-68
2021/12/04 06:39:59;;;;;;;;;20.67;19.00;;;;;6.86;98.65;99346.25;5038155;28;45301;-67
2021/12/04 06:42:25;;;;;;;;;20.67;17.00;;;;;7.02;98.59;99373.66;5038283;28;45321;-67
2021/12/04 06:44:54;;;;;;;;;23.33;19.67;;;;;7.06;99.10;99377.91;5038133;28;45467;-67
2021/12/04 06:47:19;;;;;;;;;23.67;17.00;;;;;7.01;99.60;99366.69;5037988;28;45461;-67
2021/12/04 06:49:45;;;;;;;;;23.67;16.67;;;;;6.95;99.50;99343.34;5037305;28;46367;-66
2021/12/04 06:52:16;;;;;;;;;23.00;17.67;;;;;7.07;99.22;99363.91;5037363;28;45796;-66
2021/12/04 06:54:49;;;;;;;;;27.00;17.00;;;;;7.03;99.66;99361.41;5037906;28;45215;-66
2021/12/04 06:57:16;;;;;;;;;19.00;16.33;;;;;7.04;100.00;99365.75;5038208;28;45430;-66
2021/12/04 06:59:42;;;;;;;;;22.00;20.33;;;;;7.04;100.00;99373.63;5037927;28;46229;-66
2021/12/04 07:02:08;;;;;;;;;20.00;16.33;;;;;7.08;100.00;99383.94;5036814;28;45515;-66
2021/12/04 07:04:37;;;;;;;;;22.67;14.33;;;;;7.00;100.00;99377.22;5038151;28;45236;-66
2021/12/04 07:07:04;;;;;;;;;23.00;16.33;;;;;7.06;99.59;99380.53;5038315;28;45562;-66
2021/12/04 07:09:30;;;;;;;;;22.67;16.33;;;;;7.04;99.45;99371.00;5037374;28;46377;-66
2021/12/04 07:11:55;;;;;;;;;24.50;14.75;;;;;6.91;100.00;99355.69;5036997;28;45354;-66
2021/12/04 07:14:21;;;;;;;;;29.67;23.67;;;;;6.96;100.00;99369.47;5037937;28;45870;-67
2021/12/04 07:16:47;;;;;;;;;21.33;14.33;;;;;6.93;100.00;99359.09;5037865;28;45317;-67
2021/12/04 07:19:12;;;;;;;;;14.00;11.67;;;;;6.87;100.00;99345.31;5037502;28;46227;-67
2021/12/04 07:21:37;;;;;;;;;14.75;10.25;;;;;6.84;99.56;99343.69;5037496;28;45385;-67
2021/12/04 07:24:03;;;;;;;;;16.67;14.00;;;;;6.89;99.84;99359.25;5037503;28;45239;-67
2021/12/04 07:26:28;;;;;;;;;25.67;17.33;;;;;6.75;100.00;99349.19;5037765;28;45295;-71
2021/12/04 07:28:54;;;;;;;;;22.33;16.00;;;;;6.85;100.00;99370.69;5037603;28;45432;-68
2021/12/04 07:31:20;;;;;;;;;21.33;18.33;;;;;6.58;100.00;99323.53;5037435;28;45374;-68
2021/12/04 07:33:45;;;;;;;;;17.67;12.33;;;;;6.84;100.00;99368.97;5037526;28;45585;-68
2021/12/04 07:36:11;;;;;;;;;24.33;17.00;;;;;6.79;100.00;99363.88;5037908;28;45380;-67
2021/12/04 07:38:36;;;;;;;;;21.00;15.00;;;;;6.82;100.00;99365.56;5037105;28;45257;-68
2021/12/04 07:41:03;;;;;;;;;16.67;15.67;;;;;6.93;100.00;99377.41;5036974;28;45313;-67
2021/12/04 07:43:29;;;;;;;;;20.50;14.75;;;;;6.93;100.00;99369.56;5037412;28;45396;-70
2021/12/04 07:45:54;;;;;;;;;14.25;14.25;;;;;6.89;100.00;99367.94;5037041;28;45505;-68
2021/12/04 07:48:19;;;;;;;;;21.67;15.00;;;;;6.86;100.00;99359.34;5037423;28;46142;-67
2021/12/04 07:50:45;;;;;;;;;17.50;11.00;;;;;6.83;100.00;99367.28;5037165;28;45454;-69
2021/12/04 07:53:10;;;;;;;;;19.50;13.50;;;;;6.77;100.00;99357.84;5037407;28;45264;-68
2021/12/04 07:55:36;;;;;;;;;17.67;14.33;;;;;6.79;100.00;99356.03;5037343;28;45307;-68
2021/12/04 07:58:02;;;;;;;;;26.33;17.67;;;;;6.83;100.00;99364.66;5036899;28;46494;-68
2021/12/04 08:00:28;;;;;;;;;26.67;21.33;;;;;6.70;100.00;99330.16;5036318;28;45262;-68
2021/12/04 08:02:54;;;;;;;;;32.33;21.67;;;;;6.76;100.00;99329.97;5036772;28;45523;-68
2021/12/04 08:05:20;;;;;;;;;48.33;35.33;;;;;6.78;100.00;99330.78;5037068;28;45253;-68
2021/12/04 08:07:45;;;;;;;;;28.33;23.33;;;;;6.78;100.00;99322.91;5037003;28;47240;-68
2021/12/04 08:10:16;;;;;;;;;30.00;21.00;;;;;6.78;100.00;99330.78;5036124;28;45450;-68
2021/12/04 08:12:42;;;;;;;;;26.67;17.33;;;;;6.79;100.00;99340.34;5036854;28;45269;-67
2021/12/04 08:15:09;;;;;;;;;36.00;26.33;;;;;6.78;100.00;99344.72;5030048;28;45224;-68
2021/12/04 08:17:35;;;;;;;;;20.33;17.00;;;;;6.80;100.00;99347.28;5036334;28;46308;-67
2021/12/04 08:20:01;;;;;;;;;19.33;16.33;;;;;6.83;100.00;99344.59;5036914;28;45409;-68
2021/12/04 08:22:26;;;;;;;;;25.67;18.33;;;;;6.78;100.00;99330.78;5037065;28;45536;-68
2021/12/04 08:24:51;;;;;;;;;22.33;17.33;;;;;6.78;100.00;99313.34;5039138;28;45348;-68
2021/12/04 08:27:17;;;;;;;;;25.33;16.33;;;;;6.88;100.00;99334.81;5040058;28;46359;-68
2021/12/04 08:29:43;;;;;;;;;21.25;12.25;;;;;6.80;100.00;99323.75;5040502;28;45743;-68
2021/12/04 08:32:10;;;;;;;;;15.50;11.75;;;;;6.88;100.00;99349.66;5040158;28;45302;-68
2021/12/04 08:34:37;;;;;;;;;15.33;14.00;;;;;6.88;100.00;99352.28;5040777;28;45373;-68
2021/12/04 08:37:03;;;;;;;;;19.00;16.67;;;;;6.87;100.00;99347.94;5040025;28;47476;-68
2021/12/04 08:39:29;;;;;;;;;10.00;8.75;;;;;6.80;100.00;99324.59;5039752;28;45251;-68
2021/12/04 08:41:55;;;;;;;;;19.00;12.50;;;;;6.82;100.00;99337.63;5040067;28;45239;-70
2021/12/04 08:44:20;;;;;;;;;18.67;12.33;;;;;6.67;100.00;99325.88;5040281;28;45393;-70
2021/12/04 08:46:46;;;;;;;;;21.67;14.33;;;;;6.77;100.00;99335.16;5039520;28;46207;-69
2021/12/04 08:49:12;;;;;;;;;17.00;11.75;;;;;6.83;100.00;99348.97;5040027;28;45429;-69
2021/12/04 08:51:38;;;;;;;;;18.33;16.00;;;;;6.84;100.00;99346.31;5039974;28;45318;-69
2021/12/04 08:54:04;;;;;;;;;15.00;14.00;;;;;6.84;100.00;99348.91;5039872;28;45527;-69
2021/12/04 08:56:30;;;;;;;;;17.50;14.25;;;;;6.90;100.00;99355.72;5039550;28;46273;-69
2021/12/04 08:58:56;;;;;;;;;16.00;11.00;;;;;6.50;100.00;99294.13;5039624;28;45375;-69
2021/12/04 09:01:25;;;;;;;;;16.50;10.25;;;;;6.91;100.00;99360.03;5040165;28;45249;-69
2021/12/04 09:04:04;;;;;;;;;9.50;9.50;;;;;6.92;100.00;99362.59;5039024;28;45388;-69
2021/12/04 09:06:31;;;;;;;;;52.00;43.33;;;;;6.93;100.00;99364.31;5038289;28;45509;-68
2021/12/04 09:08:58;;;;;;;;;11.67;9.00;;;;;6.86;100.00;99343.63;5034939;28;45774;-71
2021/12/04 09:11:28;;;;;;;;;29.33;27.00;;;;;6.95;100.00;99353.81;5034669;28;45596;-70
2021/12/04 09:13:55;;;;;;;;;11.25;9.75;;;;;6.96;100.00;99364.22;5038574;28;45391;-70
2021/12/04 09:16:23;;;;;;;;;11.75;9.00;;;;;6.99;100.00;99365.91;5036035;28;47798;-70
2021/12/04 09:18:48;;;;;;;;;13.00;10.50;;;;;6.95;100.00;99359.88;5037315;28;45405;-70
2021/12/04 09:21:14;;;;;;;;;10.00;9.00;;;;;6.90;100.00;99347.88;5038030;28;45338;-70
2021/12/04 09:23:45;;;;;;;;;11.75;9.75;;;;;7.05;100.00;99375.34;5038423;28;45464;-71
2021/12/04 09:26:16;;;;;;;;;11.25;10.00;;;;;7.04;100.00;99391.94;5036082;28;45402;-70
2021/12/04 10:03:44;;;;;;;;;5.75;5.50;;;;;6.75;100.00;99441.59;5036432;28;45337;-70
2021/12/04 10:19:31;;;;;;;;;14.50;8.50;;;;;7.04;100.00;99455.59;4962614;28;45568;-70
2021/12/04 10:22:14;;;;;;;;;12.75;8.00;;;;;7.11;100.00;99453.66;4974376;28;45758;-71
2021/12/04 10:32:45;;;;;;;;;13.50;12.00;;;;;7.23;98.45;99432.38;4975090;28;45414;-68
2021/12/04 10:35:10;;;;;;;;;8.50;8.00;;;;;7.23;97.90;99421.91;4975338;28;45467;-69
2021/12/04 10:37:46;;;;;;;;;11.50;9.00;;;;;7.26;98.84;99436.63;4975663;28;45406;-67
2021/12/04 10:40:12;;;;;;;;;6.00;5.00;;;;;7.27;98.30;99425.25;4973585;28;45453;-68
2021/12/04 10:42:52;;;;;;;;;11.50;9.25;;;;;7.30;98.07;99415.56;4976108;28;45460;-68
2021/12/04 10:45:19;;;;;;;;;7.00;5.00;;;;;7.35;98.57;99425.91;4970450;28;45452;-67
2021/12/04 10:47:53;;;;;;;;;7.25;6.50;;;;;7.27;98.02;99401.69;4974216;28;45530;-67
2021/12/04 10:52:59;;;;;;;;;10.00;7.00;;;;;7.14;98.83;99375.91;4979945;28;45484;-67
2021/12/04 10:55:40;;;;;;;;;55.00;43.00;;;;;7.40;98.59;99403.03;5035950;28;45727;-67
2021/12/04 11:00:50;;;;;;;;;17.67;17.67;;;;;7.49;99.15;99402.75;5036190;28;45427;-68
2021/12/04 11:03:23;;;;;;;;;11.00;8.00;;;;;7.47;98.34;99399.31;5035530;28;45448;-69
2021/12/04 11:25:58;;;;;;;;;6.50;6.50;;;;;7.55;99.33;99398.19;5034300;28;45515;-68
2021/12/04 11:44:22;;;;;;;;;2.25;2.00;;;;;7.65;95.13;99421.44;5041112;28;45626;-68
2021/12/04 11:46:50;;;;;;;;;3.25;3.25;;;;;7.65;95.02;99424.06;5030593;28;46051;-68
2021/12/04 11:49:27;;;;;;;;;3.50;2.00;;;;;7.69;95.05;99421.34;5032360;28;45474;-69
2021/12/04 11:52:04;;;;;;;;;2.75;2.50;;;;;7.71;94.82;99430.00;5033078;28;45584;-69
2021/12/04 11:54:44;;;;;;;;;5.50;2.00;;;;;7.75;94.30;99429.00;5034372;28;46429;-69
2021/12/04 11:57:13;;;;;;;;;4.50;4.00;;;;;7.80;94.13;99435.81;5036594;28;45463;-67
2021/12/04 11:59:42;;;;;;;;;4.00;4.00;;;;;7.84;93.77;99428.69;5036422;28;45345;-67
2021/12/04 12:02:20;;;;;;;;;11.50;10.00;;;;;7.98;93.48;99441.34;5032444;28;45481;-67
2021/12/04 12:04:56;;;;;;;;;4.00;3.25;;;;;8.09;92.81;99435.72;5035687;28;46284;-68
2021/12/04 12:07:27;;;;;;;;;5.00;4.00;;;;;8.22;92.76;99439.69;5040813;28;45390;-68
2021/12/04 12:10:13;;;;;;;;;2.00;2.00;;;;;8.24;92.20;99427.34;5036722;28;45234;-68
2021/12/04 12:12:42;;;;;;;;;1.00;1.00;;;;;8.40;92.57;99437.31;5035002;28;45390;-68
2021/12/04 12:15:32;;;;;;;;;7.00;4.50;;;;;8.43;91.42;99443.31;5039746;28;47107;-68
2021/12/04 12:18:19;;;;;;;;;4.75;3.00;;;;;8.45;91.78;99448.53;5036526;28;45349;-68
2021/12/04 12:23:17;;;;;;;;;4.25;3.25;;;;;8.40;91.06;99450.44;5036842;28;45337;-68
2021/12/04 12:34:11;;;;;;;;;1.75;1.75;;;;;8.60;88.97;99473.38;5046075;28;45369;-67
2021/12/04 12:36:36;;;;;;;;;5.75;5.75;;;;;8.62;89.45;99461.06;5036170;28;46503;-68
2021/12/04 12:39:05;;;;;;;;;4.00;3.00;;;;;8.87;89.37;99480.28;5036806;28;45394;-68
2021/12/04 12:42:03;;;;;;;;;4.75;4.75;;;;;8.98;89.08;99476.38;5036121;28;45708;-68
2021/12/04 12:44:30;;;;;;;;;3.00;3.00;;;;;8.88;86.98;99468.00;4991078;28;45503;-68
2021/12/04 12:46:58;;;;;;;;;2.50;2.50;;;;;8.85;86.99;99484.69;4974947;28;47038;-67
2021/12/04 12:49:25;;;;;;;;;3.75;1.50;;;;;8.83;87.71;99488.28;4975078;28;45440;-67
2021/12/04 12:51:56;;;;;;;;;2.75;2.50;;;;;8.93;88.05;99504.56;4991099;28;45690;-70
2021/12/04 12:54:26;;;;;;;;;2.25;2.25;;;;;9.01;88.41;99489.41;4980352;28;45677;-69
2021/12/04 12:57:00;;;;;;;;;6.50;5.50;;;;;9.02;87.16;99506.88;4993204;28;46287;-68
2021/12/04 12:59:41;;;;;;;;;5.75;4.50;;;;;8.88;87.58;99483.75;4989273;28;45508;-69
2021/12/04 13:13:26;;;;;;;;;7.50;4.75;;;;;8.53;86.74;99489.31;4986316;28;45609;-70
2021/12/04 13:15:54;;;;;;;;;3.00;3.00;;;;;8.48;86.42;99486.00;4982578;28;45583;-69
2021/12/04 13:18:22;;;;;;;;;3.50;3.00;;;;;8.56;87.19;99498.84;4975389;28;46529;-68
2021/12/04 13:20:52;;;;;;;;;5.75;3.25;;;;;8.59;86.50;99483.00;4991872;28;45492;-69
2021/12/04 13:23:22;;;;;;;;;2.75;2.75;;;;;8.73;84.36;99505.28;4997719;28;45736;-71
2021/12/04 13:25:50;;;;;;;;;4.00;2.50;;;;;8.64;83.97;99475.84;4997810;28;45477;-72
2021/12/04 13:28:27;;;;;;;;;5.75;2.25;;;;;8.73;83.35;99477.28;4997321;28;45710;-71
2021/12/04 13:30:53;;;;;;;;;3.75;3.00;;;;;8.84;83.01;99490.00;4997713;28;45426;-68
2021/12/04 13:33:19;;;;;;;;;5.00;3.00;;;;;8.64;82.06;99459.22;4997631;28;45414;-69
2021/12/04 13:35:46;;;;;;;;;6.50;4.50;;;;;8.71;82.10;99469.47;5001352;28;45473;-68
2021/12/04 13:38:14;;;;;;;;;4.50;3.25;;;;;8.72;81.73;99483.44;4998196;28;46288;-69
2021/12/04 13:40:42;;;;;;;;;2.00;2.00;;;;;8.51;82.31;99466.66;4997127;28;45569;-70
2021/12/04 13:43:12;;;;;;;;;2.00;2.00;;;;;8.56;80.71;99484.91;4997330;28;45492;-66
2021/12/04 13:45:38;;;;;;;;;4.00;2.50;;;;;8.51;80.45;99514.75;4997188;28;45330;-66
2021/12/04 13:48:04;;;;;;;;;2.75;2.75;;;;;8.32;80.11;99500.50;4998920;28;45462;-67
2021/12/04 13:53:08;;;;;;;;;3.25;2.75;;;;;8.21;80.13;99513.16;5000425;28;45537;-68
2021/12/04 13:55:38;;;;;;;;;7.25;6.00;;;;;8.24;81.06;99521.75;4996109;28;45424;-69
2021/12/04 13:58:05;;;;;;;;;4.25;3.00;;;;;8.23;80.57;99524.44;4997466;28;46502;-70
2021/12/04 14:00:30;;;;;;;;;5.00;1.75;;;;;7.93;80.67;99482.56;4997366;28;45406;-68
2021/12/04 14:02:56;;;;;;;;;3.00;3.00;;;;;8.12;79.10;99523.00;4998139;28;45453;-66
2021/12/04 14:05:24;;;;;;;;;3.50;2.00;;;;;8.09;80.59;99525.75;5005911;28;45562;-70
2021/12/04 14:08:00;;;;;;;;;10.50;9.25;;;;;8.05;80.44;99526.75;4997374;28;46239;-70
2021/12/04 14:10:32;;;;;;;;;6.00;2.75;;;;;7.85;79.88;99506.41;4996539;28;45917;-68
2021/12/04 14:13:02;;;;;;;;;3.25;1.75;;;;;8.04;79.71;99530.25;5026502;28;45329;-68
2021/12/04 14:15:28;;;;;;;;;26.33;20.33;;;;;8.04;79.77;99530.25;5041661;28;45521;-69
2021/12/04 14:18:03;;;;;;;;;8.00;6.00;;;;;8.09;79.42;99530.09;5038203;28;46431;-68
2021/12/04 14:20:29;;;;;;;;;3.75;3.00;;;;;8.12;81.04;99535.28;5038030;28;45444;-70
2021/12/04 14:22:57;;;;;;;;;5.50;3.00;;;;;8.11;79.50;99534.41;5037081;28;45444;-69
2021/12/04 14:25:24;;;;;;;;;2.25;2.00;;;;;8.12;79.17;99538.75;5038212;28;45255;-70
2021/12/04 14:27:52;;;;;;;;;3.00;3.00;;;;;8.09;78.95;99541.47;5038383;28;46286;-70
2021/12/04 14:30:25;;;;;;;;;3.00;1.00;;;;;8.19;78.97;99553.38;5038139;28;45536;-72
2021/12/04 14:32:55;;;;;;;;;3.00;2.00;;;;;8.28;78.69;99551.38;5037176;28;46759;-69
2021/12/04 14:35:25;;;;;;;;;3.00;2.00;;;;;8.28;78.97;99541.72;5038436;28;45183;-70
2021/12/04 14:37:53;;;;;;;;;6.00;2.75;;;;;8.41;78.38;99552.69;5038101;28;45493;-68
2021/12/04 14:40:31;;;;;;;;;2.00;2.00;;;;;8.47;78.48;99564.78;5038065;28;45485;-67